createdAt,value
2022-11-18T00:01:47.320Z,92.79
2022-11-18T00:04:15.163Z,93.05
2022-11-18T00:06:42.929Z,93.10
2022-11-18T00:09:10.645Z,92.85
2022-11-18T00:11:56.862Z,92.74
2022-11-18T00:14:27.496Z,92.48
2022-11-18T00:16:56.874Z,92.78
2022-11-18T00:19:27.319Z,92.91
2022-11-18T00:21:55.993Z,93.76
2022-11-18T00:24:24.158Z,93.27
2022-11-18T00:26:53.507Z,93.82
2022-11-18T00:29:21.802Z,93.84
2022-11-18T00:31:49.869Z,93.60
2022-11-18T00:34:19.182Z,94.06
2022-11-18T00:36:47.732Z,93.83
2022-11-18T00:39:17.304Z,93.95
2022-11-18T00:42:02.979Z,93.91
2022-11-18T00:44:32.172Z,93.47
2022-11-18T00:46:59.922Z,93.50
2022-11-18T00:49:27.632Z,94.14
2022-11-18T00:51:55.455Z,94.13
2022-11-18T00:54:23.502Z,94.82
2022-11-18T00:56:51.143Z,94.77
2022-11-18T00:59:19.024Z,95.02
2022-11-18T01:01:49.097Z,95.42
2022-11-18T01:04:17.105Z,95.68
2022-11-18T01:06:45.004Z,95.86
2022-11-18T01:09:12.716Z,95.61
2022-11-18T01:11:57.904Z,95.74
2022-11-18T01:14:25.875Z,95.64
2022-11-18T01:16:56.513Z,95.52
2022-11-18T01:19:24.731Z,95.45
2022-11-18T01:21:52.754Z,95.57
2022-11-18T01:24:20.405Z,95.92
2022-11-18T01:26:48.336Z,95.85
2022-11-18T01:29:17.262Z,95.96
2022-11-18T01:32:08.844Z,95.19
2022-11-18T01:34:34.233Z,94.85
2022-11-18T01:37:01.861Z,94.47
2022-11-18T01:39:29.728Z,93.85
2022-11-18T01:41:57.411Z,94.29
2022-11-18T01:45:10.275Z,94.32
2022-11-18T01:47:43.292Z,94.25
2022-11-18T01:50:14.366Z,94.24
2022-11-18T01:52:46.236Z,94.23
2022-11-18T01:55:20.366Z,94.53
2022-11-18T01:57:50.998Z,94.43
2022-11-18T02:00:18.916Z,94.51
2022-11-18T02:02:47.161Z,94.37
2022-11-18T02:05:17.696Z,94.46
2022-11-18T02:07:45.493Z,94.33
2022-11-18T02:10:21.195Z,94.18
2022-11-18T02:12:49.919Z,93.94
2022-11-18T02:15:18.608Z,93.50
2022-11-18T02:17:57.201Z,93.34
2022-11-18T02:20:38.361Z,93.07
2022-11-18T02:23:33.040Z,92.66
2022-11-18T02:26:27.361Z,93.46
2022-11-18T02:29:04.058Z,94.05
2022-11-18T02:31:36.419Z,94.30
2022-11-18T02:34:14.487Z,94.16
2022-11-18T02:36:47.975Z,94.26
2022-11-18T02:39:22.843Z,94.53
2022-11-18T02:41:55.199Z,94.62
2022-11-18T02:44:27.366Z,94.58
2022-11-18T02:46:59.333Z,94.56
2022-11-18T02:49:39.909Z,94.19
2022-11-18T02:52:11.322Z,94.05
2022-11-18T02:54:42.702Z,93.82
2022-11-18T02:57:10.951Z,93.91
2022-11-18T02:59:40.446Z,93.70
2022-11-18T03:02:08.110Z,93.46
2022-11-18T03:04:36.642Z,93.27
2022-11-18T03:07:12.232Z,93.08
2022-11-18T03:09:43.470Z,92.94
2022-11-18T03:12:17.266Z,92.72
2022-11-18T03:14:56.308Z,92.92
2022-11-18T03:17:32.439Z,92.61
2022-11-18T03:20:11.679Z,92.50
2022-11-18T03:22:45.718Z,93.25
2022-11-18T03:25:21.096Z,93.48
2022-11-18T03:27:55.134Z,92.71
2022-11-18T03:30:26.178Z,93.82
2022-11-18T03:32:59.468Z,92.78
2022-11-18T03:35:30.342Z,92.89
2022-11-18T03:38:09.478Z,91.94
2022-11-18T03:40:40.496Z,91.23
2022-11-18T03:43:14.186Z,91.27
2022-11-18T03:45:48.552Z,91.21
2022-11-18T03:48:18.339Z,92.25
2022-11-18T03:50:50.119Z,92.64
2022-11-18T03:53:20.620Z,92.41
2022-11-18T03:55:52.284Z,92.86
2022-11-18T03:58:25.300Z,92.59
2022-11-18T04:01:02.695Z,92.69
2022-11-18T04:03:30.343Z,92.34
2022-11-18T04:06:05.189Z,91.50
2022-11-18T04:08:39.181Z,88.96
2022-11-18T04:11:33.990Z,88.98
2022-11-18T04:14:03.686Z,88.20
2022-11-18T04:16:39.042Z,87.51
2022-11-18T04:19:06.750Z,88.78
2022-11-18T04:21:34.366Z,88.65
2022-11-18T04:24:02.314Z,88.96
2022-11-18T04:26:31.443Z,89.28
2022-11-18T04:28:59.100Z,89.55
2022-11-18T04:31:26.691Z,89.26
2022-11-18T04:33:55.673Z,88.79
2022-11-18T04:36:23.390Z,89.57
2022-11-18T04:38:50.996Z,89.11
2022-11-18T04:41:18.589Z,89.31
2022-11-18T04:43:46.203Z,89.26
2022-11-18T04:46:13.851Z,88.74
2022-11-18T04:48:41.545Z,88.58
2022-11-18T04:51:10.582Z,88.58
2022-11-18T04:53:38.224Z,88.53
2022-11-18T04:56:08.819Z,88.60
2022-11-18T04:58:36.632Z,88.23
2022-11-18T05:01:04.328Z,88.26
2022-11-18T05:03:32.014Z,88.86
2022-11-18T05:06:02.704Z,88.31
2022-11-18T05:08:32.605Z,88.66
2022-11-18T05:11:20.635Z,88.78
2022-11-18T05:13:47.227Z,89.10
2022-11-18T05:16:14.886Z,88.76
2022-11-18T05:18:42.614Z,88.65
2022-11-18T05:21:10.359Z,88.57
2022-11-18T05:23:39.299Z,88.67
2022-11-18T05:26:08.071Z,88.21
2022-11-18T05:28:37.086Z,88.75
2022-11-18T05:31:08.390Z,88.71
2022-11-18T05:33:35.995Z,89.35
2022-11-18T05:36:05.002Z,89.27
2022-11-18T05:38:33.377Z,89.07
2022-11-18T05:41:03.136Z,89.99
2022-11-18T05:43:30.343Z,89.91
2022-11-18T05:45:58.677Z,90.33
2022-11-18T05:48:26.533Z,90.07
2022-11-18T05:50:55.340Z,89.82
2022-11-18T05:53:25.313Z,90.00
2022-11-18T05:55:57.989Z,90.21
2022-11-18T05:58:27.225Z,90.03
2022-11-18T06:00:57.716Z,90.25
2022-11-18T06:03:30.899Z,90.36
2022-11-18T06:06:02.647Z,90.44
2022-11-18T06:08:35.284Z,90.08
2022-11-18T06:11:03.279Z,89.48
2022-11-18T06:13:37.903Z,89.86
2022-11-18T06:16:06.056Z,90.08
2022-11-18T06:18:35.888Z,90.62
2022-11-18T06:21:06.533Z,90.02
2022-11-18T06:23:38.014Z,89.70
2022-11-18T06:26:06.224Z,89.61
2022-11-18T06:28:35.394Z,90.02
2022-11-18T06:31:03.067Z,89.54
2022-11-18T06:33:30.775Z,90.26
2022-11-18T06:35:58.376Z,90.26
2022-11-18T06:38:26.369Z,90.40
2022-11-18T06:40:54.078Z,90.74
2022-11-18T06:43:41.561Z,90.17
2022-11-18T06:46:30.409Z,90.05
2022-11-18T06:48:58.082Z,90.27
2022-11-18T06:51:26.500Z,90.87
2022-11-18T06:53:54.157Z,90.49
2022-11-18T06:56:23.381Z,90.78
2022-11-18T06:58:54.195Z,90.37
2022-11-18T07:01:25.025Z,91.05
2022-11-18T07:03:53.428Z,91.02
2022-11-18T07:06:23.279Z,90.99
2022-11-18T07:08:51.516Z,90.73
2022-11-18T07:11:21.169Z,90.65
2022-11-18T07:13:49.302Z,90.76
2022-11-18T07:16:19.038Z,91.21
2022-11-18T07:18:49.484Z,90.95
2022-11-18T07:21:19.074Z,90.53
2022-11-18T07:23:47.038Z,90.72
2022-11-18T07:26:15.527Z,90.92
2022-11-18T07:28:43.700Z,91.28
2022-11-18T07:31:13.183Z,91.05
2022-11-18T07:33:42.470Z,91.28
2022-11-18T07:36:13.988Z,91.28
2022-11-18T07:38:42.181Z,90.46
2022-11-18T07:41:11.999Z,90.84
2022-11-18T07:43:40.141Z,91.46
2022-11-18T07:46:16.641Z,90.15
2022-11-18T07:48:45.728Z,90.60
2022-11-18T07:51:15.676Z,90.37
2022-11-18T07:53:44.340Z,90.53
2022-11-18T07:56:13.726Z,90.36
2022-11-18T07:58:42.071Z,90.46
2022-11-18T08:01:11.667Z,90.68
2022-11-18T08:03:40.440Z,88.51
2022-11-18T08:06:09.841Z,88.80
2022-11-18T08:08:39.148Z,88.88
2022-11-18T08:11:09.144Z,89.00
2022-11-18T08:13:37.239Z,89.21
2022-11-18T08:16:06.124Z,89.49
2022-11-18T08:18:34.005Z,89.79
2022-11-18T08:21:04.772Z,88.91
2022-11-18T08:23:37.430Z,87.68
2022-11-18T08:26:11.368Z,85.93
2022-11-18T08:28:39.470Z,87.27
2022-11-18T08:31:11.779Z,86.85
2022-11-18T08:33:39.575Z,88.16
2022-11-18T08:36:08.861Z,88.16
2022-11-18T08:38:36.820Z,87.76
2022-11-18T08:41:07.193Z,88.09
2022-11-18T08:43:37.988Z,88.28
2022-11-18T08:46:05.903Z,88.60
2022-11-18T08:48:33.569Z,88.42
2022-11-18T08:51:02.111Z,87.89
2022-11-18T08:53:29.931Z,87.94
2022-11-18T08:55:58.582Z,88.64
2022-11-18T08:58:26.643Z,88.20
2022-11-18T09:00:56.333Z,89.22
2022-11-18T09:03:24.372Z,88.09
2022-11-18T09:05:52.034Z,87.91
2022-11-18T09:08:19.958Z,87.30
2022-11-18T09:10:47.666Z,87.51
2022-11-18T09:16:05.899Z,86.70
2022-11-18T09:18:34.267Z,86.92
2022-11-18T09:21:04.022Z,87.29
2022-11-18T09:23:32.632Z,86.57
2022-11-18T09:26:00.571Z,86.69
2022-11-18T09:28:28.790Z,87.30
2022-11-18T09:30:56.508Z,86.76
2022-11-18T09:33:26.173Z,87.16
2022-11-18T09:35:53.855Z,86.09
2022-11-18T09:38:21.573Z,86.58
2022-11-18T09:40:58.536Z,85.77
2022-11-18T09:43:34.720Z,85.49
2022-11-18T09:46:09.339Z,85.99
2022-11-18T09:48:56.451Z,85.84
2022-11-18T09:51:28.988Z,85.41
2022-11-18T09:53:56.662Z,85.05
2022-11-18T09:56:24.456Z,84.80
2022-11-18T09:58:52.200Z,84.34
2022-11-18T10:01:22.117Z,84.37
2022-11-18T10:03:51.749Z,84.19
2022-11-18T10:06:25.061Z,84.22
2022-11-18T10:09:06.574Z,85.07
2022-11-18T10:11:41.741Z,83.94
2022-11-18T10:14:28.267Z,84.29
2022-11-18T10:17:02.452Z,83.24
2022-11-18T10:19:35.641Z,83.41
2022-11-18T10:22:23.778Z,83.38
2022-11-18T10:24:53.562Z,83.46
2022-11-18T10:27:21.715Z,82.45
2022-11-18T10:29:54.943Z,82.42
2022-11-18T10:32:22.875Z,80.91
2022-11-18T10:34:53.847Z,80.88
2022-11-18T10:37:52.572Z,78.60
2022-11-18T10:40:26.633Z,78.42
2022-11-18T10:42:54.885Z,79.40
2022-11-18T10:45:26.858Z,79.82
2022-11-18T10:48:04.270Z,80.26
2022-11-18T10:50:35.823Z,80.42
2022-11-18T10:53:04.662Z,80.70
2022-11-18T10:55:32.390Z,80.30
2022-11-18T10:58:04.093Z,80.67
2022-11-18T11:00:42.403Z,80.67
2022-11-18T11:03:28.965Z,78.36
2022-11-18T11:06:22.675Z,75.55
2022-11-18T11:08:52.194Z,71.07
2022-11-18T11:11:28.673Z,70.22
2022-11-18T11:14:05.234Z,70.73
2022-11-18T11:16:37.271Z,71.80
2022-11-18T11:19:06.784Z,71.78
2022-11-18T11:21:35.972Z,69.62
2022-11-18T11:24:10.676Z,72.05
2022-11-18T11:29:53.063Z,74.64
2022-11-18T11:32:31.352Z,75.22
2022-11-18T11:35:08.148Z,75.75
2022-11-18T11:37:53.584Z,75.70
2022-11-18T11:40:29.318Z,72.15
2022-11-18T11:43:08.695Z,69.02
2022-11-18T11:45:44.228Z,69.58
2022-11-18T11:48:27.117Z,71.29
2022-11-18T11:51:04.356Z,69.66
2022-11-18T11:53:54.811Z,70.10
2022-11-18T11:56:31.386Z,70.32
2022-11-18T11:59:09.713Z,71.22
2022-11-18T12:01:47.322Z,72.59
2022-11-18T12:04:31.162Z,74.58
2022-11-18T12:07:00.231Z,75.02
2022-11-18T12:09:43.277Z,75.85
2022-11-18T12:12:38.378Z,76.49
2022-11-18T12:15:17.703Z,76.91
2022-11-18T12:17:54.112Z,77.80
2022-11-18T12:20:37.999Z,77.50
2022-11-18T12:23:17.467Z,77.28
2022-11-18T12:26:02.880Z,77.40
2022-11-18T12:28:33.525Z,77.22
2022-11-18T12:31:34.237Z,76.95
2022-11-18T12:34:06.515Z,74.13
2022-11-18T12:36:36.220Z,70.66
2022-11-18T12:39:47.507Z,68.81
2022-11-18T12:43:01.895Z,69.34
2022-11-18T12:45:50.678Z,69.32
2022-11-18T12:48:39.788Z,67.05
2022-11-18T12:51:40.884Z,64.99
2022-11-18T12:54:32.231Z,67.73
2022-11-18T12:57:02.603Z,68.41
2022-11-18T12:59:37.474Z,65.98
2022-11-18T13:02:21.123Z,64.48
2022-11-18T13:05:08.341Z,66.14
2022-11-18T13:08:00.118Z,64.23
2022-11-18T13:10:31.409Z,62.37
2022-11-18T13:12:59.813Z,65.84
2022-11-18T13:15:46.371Z,64.04
2022-11-18T13:18:18.357Z,65.34
2022-11-18T13:20:57.547Z,64.64
2022-11-18T13:23:47.088Z,62.10
2022-11-18T13:26:20.688Z,64.00
2022-11-18T13:29:03.984Z,61.69
2022-11-18T13:31:43.243Z,62.90
2022-11-18T13:34:18.709Z,63.24
2022-11-18T13:36:47.985Z,66.03
2022-11-18T13:39:22.137Z,63.58
2022-11-18T13:42:00.740Z,64.83
2022-11-18T13:44:30.443Z,66.62
2022-11-18T13:47:05.747Z,65.05
2022-11-18T13:49:58.994Z,64.83
2022-11-18T13:52:31.912Z,63.40
2022-11-18T13:55:01.362Z,64.13
2022-11-18T13:57:31.047Z,62.93
2022-11-18T14:00:03.810Z,65.58
2022-11-18T14:02:33.014Z,65.06
2022-11-18T14:05:02.990Z,63.97
2022-11-18T14:07:33.157Z,62.43
2022-11-18T14:10:02.418Z,61.28
2022-11-18T14:12:32.482Z,63.01
2022-11-18T14:15:20.416Z,65.84
2022-11-18T14:17:55.801Z,66.12
2022-11-18T14:20:24.848Z,66.38
2022-11-18T14:22:56.931Z,67.57
2022-11-18T14:25:29.111Z,69.27
2022-11-18T14:27:57.932Z,69.16
2022-11-18T14:30:34.592Z,70.23
2022-11-18T14:33:24.742Z,70.07
2022-11-18T14:35:56.273Z,70.43
2022-11-18T14:38:47.600Z,70.65
2022-11-18T14:41:44.398Z,71.58
2022-11-18T14:44:14.285Z,71.60
2022-11-18T14:46:44.406Z,71.85
2022-11-18T14:49:17.271Z,71.19
2022-11-18T14:51:45.243Z,71.82
2022-11-18T14:54:15.621Z,71.80
2022-11-18T14:56:45.889Z,72.59
2022-11-18T14:59:14.303Z,72.48
2022-11-18T15:01:42.694Z,72.98
2022-11-18T15:04:10.887Z,72.76
2022-11-18T15:06:40.479Z,72.67
2022-11-18T15:09:08.840Z,72.88
2022-11-18T15:11:36.779Z,72.88
2022-11-18T15:14:05.083Z,73.05
2022-11-18T15:16:34.484Z,73.34
2022-11-18T15:19:04.306Z,73.61
2022-11-18T15:21:32.387Z,73.28
2022-11-18T15:24:01.729Z,73.68
2022-11-18T15:26:33.459Z,74.58
2022-11-18T15:29:01.374Z,75.20
2022-11-18T15:31:29.113Z,75.38
2022-11-18T15:33:59.791Z,75.58
2022-11-18T15:36:29.853Z,76.22
2022-11-18T15:38:57.474Z,76.19
2022-11-18T15:41:28.350Z,76.41
2022-11-18T15:43:57.468Z,76.58
2022-11-18T15:46:27.547Z,77.34
2022-11-18T15:48:57.016Z,77.38
2022-11-18T15:51:26.086Z,78.30
2022-11-18T15:53:54.277Z,78.45
2022-11-18T15:56:29.124Z,77.95
2022-11-18T15:58:58.263Z,78.13
2022-11-18T16:01:27.458Z,77.92
2022-11-18T16:03:55.161Z,77.21
2022-11-18T16:06:23.374Z,76.79
2022-11-18T16:08:55.876Z,77.14
2022-11-18T16:11:46.510Z,76.40
2022-11-18T16:14:15.093Z,77.53
2022-11-18T16:16:44.856Z,79.10
2022-11-18T16:19:14.761Z,79.69
2022-11-18T16:21:44.439Z,77.68
2022-11-18T16:24:14.884Z,77.75
2022-11-18T16:26:43.857Z,77.48
2022-11-18T16:29:12.221Z,77.39
2022-11-18T16:31:43.476Z,77.48
2022-11-18T16:34:12.709Z,78.92
2022-11-18T16:36:42.524Z,79.26
2022-11-18T16:39:12.406Z,79.48
2022-11-18T16:41:41.435Z,79.12
2022-11-18T16:44:12.086Z,79.62
2022-11-18T16:46:41.417Z,79.82
2022-11-18T16:49:14.001Z,79.87
2022-11-18T16:51:43.143Z,80.01
2022-11-18T16:54:17.282Z,80.12
2022-11-18T16:56:45.482Z,80.05
2022-11-18T16:59:16.665Z,80.11
2022-11-18T17:01:45.149Z,79.59
2022-11-18T17:04:12.841Z,80.56
2022-11-18T17:06:41.452Z,80.49
2022-11-18T17:09:13.443Z,79.95
2022-11-18T17:11:41.351Z,80.96
2022-11-18T17:14:09.182Z,81.16
2022-11-18T17:16:38.164Z,81.86
2022-11-18T17:19:10.348Z,82.85
2022-11-18T17:21:39.446Z,83.21
2022-11-18T17:24:08.169Z,82.77
2022-11-18T17:26:36.220Z,83.10
2022-11-18T17:29:04.723Z,83.54
2022-11-18T17:31:32.552Z,83.87
2022-11-18T17:34:01.825Z,83.17
2022-11-18T17:36:29.850Z,83.30
2022-11-18T17:39:00.476Z,83.13
2022-11-18T17:41:47.770Z,83.54
2022-11-18T17:44:17.837Z,84.83
2022-11-18T17:46:47.101Z,84.40
2022-11-18T17:49:18.769Z,84.40
2022-11-18T17:51:46.991Z,84.49
2022-11-18T17:54:15.263Z,83.62
2022-11-18T17:56:43.212Z,84.15
2022-11-18T17:59:10.928Z,83.96
2022-11-18T18:01:38.627Z,83.94
2022-11-18T18:04:06.399Z,83.49
2022-11-18T18:06:35.422Z,83.82
2022-11-18T18:09:03.580Z,83.33
2022-11-18T18:11:31.201Z,83.71
2022-11-18T18:14:13.150Z,84.08
2022-11-18T18:16:43.304Z,83.61
2022-11-18T18:19:12.936Z,83.76
2022-11-18T18:21:42.324Z,84.60
2022-11-18T18:24:11.001Z,84.61
2022-11-18T18:26:39.407Z,84.40
2022-11-18T18:29:09.210Z,84.32
2022-11-18T18:31:38.236Z,84.54
2022-11-18T18:34:06.155Z,84.73
2022-11-18T18:36:33.828Z,84.71
2022-11-18T18:39:02.924Z,84.69
2022-11-18T18:41:32.270Z,84.51
2022-11-18T18:44:00.119Z,84.91
2022-11-18T18:46:32.063Z,85.03
2022-11-18T18:49:03.321Z,85.22
2022-11-18T18:51:34.381Z,84.91
2022-11-18T18:54:03.980Z,85.03
2022-11-18T18:56:31.792Z,84.68
2022-11-18T18:59:00.240Z,84.38
2022-11-18T19:01:28.575Z,84.43
2022-11-18T19:03:57.697Z,84.28
2022-11-18T19:06:50.554Z,84.50
2022-11-18T19:09:16.981Z,84.31
2022-11-18T19:12:03.347Z,84.05
2022-11-18T19:14:31.540Z,84.02
2022-11-18T19:17:02.478Z,85.47
2022-11-18T19:19:51.854Z,83.44
2022-11-18T19:22:20.152Z,84.03
2022-11-18T19:24:50.774Z,83.25
2022-11-18T19:27:19.684Z,85.11
2022-11-18T19:29:48.095Z,83.99
2022-11-18T19:32:16.340Z,84.38
2022-11-18T19:34:44.371Z,84.70
2022-11-18T19:37:12.490Z,84.12
2022-11-18T19:39:40.362Z,84.47
2022-11-18T19:42:10.906Z,84.85
2022-11-18T19:44:39.247Z,84.74
2022-11-18T19:47:07.273Z,85.00
2022-11-18T19:49:35.147Z,84.62
2022-11-18T19:52:03.351Z,84.90
2022-11-18T19:54:31.310Z,84.81
2022-11-18T19:56:59.746Z,84.88
2022-11-18T19:59:28.865Z,85.16
2022-11-18T20:01:56.869Z,85.30
2022-11-18T20:04:25.039Z,84.57
2022-11-18T20:06:52.906Z,84.49
2022-11-18T20:09:21.026Z,84.66
2022-11-18T20:11:49.643Z,84.78
2022-11-18T20:14:17.439Z,84.75
2022-11-18T20:16:46.808Z,84.28
2022-11-18T20:19:17.084Z,84.49
2022-11-18T20:21:44.844Z,84.67
2022-11-18T20:24:16.811Z,84.59
2022-11-18T20:26:45.509Z,84.04
2022-11-18T20:29:13.463Z,84.29
2022-11-18T20:31:41.701Z,84.40
2022-11-18T20:34:14.236Z,85.11
2022-11-18T20:36:42.270Z,84.25
2022-11-18T20:39:14.439Z,83.43
2022-11-18T20:41:42.175Z,83.49
2022-11-18T20:44:09.792Z,84.31
2022-11-18T20:46:37.498Z,83.60
2022-11-18T20:49:05.220Z,83.17
2022-11-18T20:51:34.516Z,83.71
2022-11-18T20:54:07.576Z,83.85
2022-11-18T20:56:35.271Z,84.10
2022-11-18T20:59:02.980Z,82.94
2022-11-18T21:01:33.022Z,83.28
2022-11-18T21:04:03.305Z,83.23
2022-11-18T21:06:32.697Z,84.49
2022-11-18T21:09:03.204Z,83.80
2022-11-18T21:11:31.707Z,82.82
2022-11-18T21:14:22.997Z,84.86
2022-11-18T21:16:52.530Z,83.52
2022-11-18T21:19:20.631Z,84.05
2022-11-18T21:21:51.866Z,84.05
2022-11-18T21:24:22.866Z,83.63
2022-11-18T21:26:54.288Z,82.37
2022-11-18T21:29:22.688Z,81.59
2022-11-18T21:31:50.415Z,82.92
2022-11-18T21:34:19.097Z,81.17
2022-11-18T21:36:51.718Z,80.72
2022-11-18T21:39:23.947Z,81.03
2022-11-18T21:41:55.697Z,81.20
2022-11-18T21:44:24.220Z,82.18
2022-11-18T21:46:51.795Z,82.59
2022-11-18T21:49:19.664Z,82.92
2022-11-18T21:51:47.364Z,83.09
2022-11-18T21:54:18.022Z,82.99
2022-11-18T21:56:47.030Z,83.29
2022-11-18T21:59:14.698Z,83.32
2022-11-18T22:01:42.333Z,83.37
2022-11-18T22:04:30.011Z,83.21
2022-11-18T22:06:57.632Z,84.06
2022-11-18T22:09:25.224Z,84.09
2022-11-18T22:11:54.525Z,83.86
2022-11-18T22:14:22.165Z,83.78
2022-11-18T22:16:51.300Z,83.55
2022-11-18T22:19:19.010Z,83.23
2022-11-18T22:21:47.119Z,84.28
2022-11-18T22:24:14.704Z,84.36
2022-11-18T22:26:42.272Z,82.70
2022-11-18T22:29:11.214Z,83.80
2022-11-18T22:31:39.098Z,83.47
2022-11-18T22:34:06.726Z,84.02
2022-11-18T22:36:34.369Z,83.08
2022-11-18T22:39:02.282Z,83.24
2022-11-18T22:41:48.197Z,83.32
2022-11-18T22:44:17.888Z,83.49
2022-11-18T22:46:46.761Z,83.17
2022-11-18T22:49:14.702Z,84.10
2022-11-18T22:51:42.475Z,83.47
2022-11-18T22:54:37.033Z,83.41
2022-11-18T22:56:58.242Z,83.90
2022-11-18T22:59:27.176Z,84.32
2022-11-18T23:01:55.047Z,84.43
2022-11-18T23:04:22.686Z,84.67
2022-11-18T23:06:50.616Z,84.85
2022-11-18T23:09:18.577Z,84.64
2022-11-18T23:12:04.285Z,85.22
2022-11-18T23:14:33.314Z,84.88
2022-11-18T23:17:01.419Z,85.15
2022-11-18T23:19:29.117Z,85.64
2022-11-18T23:21:57.294Z,85.47
2022-11-18T23:24:25.344Z,85.44
2022-11-18T23:26:52.956Z,85.46
2022-11-18T23:29:21.487Z,84.84
2022-11-18T23:31:50.912Z,85.00
2022-11-18T23:34:19.537Z,85.24
2022-11-18T23:36:47.654Z,85.12
2022-11-18T23:39:15.318Z,84.38
2022-11-18T23:41:42.964Z,85.03
2022-11-18T23:44:10.575Z,85.10
2022-11-18T23:46:38.363Z,85.27
2022-11-18T23:49:10.677Z,85.00
2022-11-18T23:51:38.373Z,85.24
2022-11-18T23:54:06.111Z,85.76
2022-11-18T23:56:37.729Z,86.03
2022-11-18T23:59:05.579Z,86.91
